sensor_id;sensor_type;location;lat;lon;timestamp;temperature;humidity
31967;DHT22;18496;52.042;6.812;2022-12-05T00:00:52;4.80;99.90
31967;DHT22;18496;52.042;6.812;2022-12-05T00:02:56;4.90;99.90
31967;DHT22;18496;52.042;6.812;2022-12-05T00:04:59;4.80;99.90
31967;DHT22;18496;52.042;6.812;2022-12-05T00:07:06;4.80;99.90
31967;DHT22;18496;52.042;6.812;2022-12-05T00:09:12;4.90;99.90
31967;DHT22;18496;52.042;6.812;2022-12-05T00:11:18;4.90;99.90
31967;DHT22;18496;52.042;6.812;2022-12-05T00:13:22;4.90;99.90
31967;DHT22;18496;52.042;6.812;2022-12-05T00:15:25;4.90;99.90
31967;DHT22;18496;52.042;6.812;2022-12-05T00:17:30;4.90;99.90
31967;DHT22;18496;52.042;6.812;2022-12-05T00:19:34;4.90;99.90
31967;DHT22;18496;52.042;6.812;2022-12-05T00:21:38;5.00;99.90
31967;DHT22;18496;52.042;6.812;2022-12-05T00:23:42;5.00;99.90
31967;DHT22;18496;52.042;6.812;2022-12-05T00:25:46;5.00;99.90
31967;DHT22;18496;52.042;6.812;2022-12-05T00:27:49;5.00;99.90
31967;DHT22;18496;52.042;6.812;2022-12-05T00:29:53;5.00;99.90
31967;DHT22;18496;52.042;6.812;2022-12-05T00:31:57;5.00;99.90
31967;DHT22;18496;52.042;6.812;2022-12-05T00:34:01;5.00;99.90
31967;DHT22;18496;52.042;6.812;2022-12-05T00:36:26;5.00;99.90
31967;DHT22;18496;52.042;6.812;2022-12-05T00:38:29;5.00;99.90
31967;DHT22;18496;52.042;6.812;2022-12-05T00:40:35;5.00;99.90
31967;DHT22;18496;52.042;6.812;2022-12-05T00:42:42;5.00;99.90
31967;DHT22;18496;52.042;6.812;2022-12-05T00:44:48;5.00;99.90
31967;DHT22;18496;52.042;6.812;2022-12-05T00:46:52;5.00;99.90
31967;DHT22;18496;52.042;6.812;2022-12-05T00:48:58;5.00;99.90
31967;DHT22;18496;52.042;6.812;2022-12-05T00:51:10;5.00;99.90
31967;DHT22;18496;52.042;6.812;2022-12-05T00:53:14;5.00;99.90
31967;DHT22;18496;52.042;6.812;2022-12-05T00:55:18;5.00;99.90
31967;DHT22;18496;52.042;6.812;2022-12-05T00:57:21;5.00;99.90
31967;DHT22;18496;52.042;6.812;2022-12-05T00:59:25;5.00;99.90
31967;DHT22;18496;52.042;6.812;2022-12-05T01:01:37;5.00;99.90
31967;DHT22;18496;52.042;6.812;2022-12-05T01:03:42;5.00;99.90
31967;DHT22;18496;52.042;6.812;2022-12-05T01:05:46;5.00;99.90
31967;DHT22;18496;52.042;6.812;2022-12-05T01:07:50;5.00;99.90
31967;DHT22;18496;52.042;6.812;2022-12-05T01:09:54;5.00;99.90
31967;DHT22;18496;52.042;6.812;2022-12-05T01:11:57;5.00;99.90
31967;DHT22;18496;52.042;6.812;2022-12-05T01:14:01;5.00;99.90
31967;DHT22;18496;52.042;6.812;2022-12-05T01:16:05;5.00;99.90
31967;DHT22;18496;52.042;6.812;2022-12-05T01:18:09;5.10;99.90
31967;DHT22;18496;52.042;6.812;2022-12-05T01:20:13;5.10;99.90
31967;DHT22;18496;52.042;6.812;2022-12-05T01:22:16;5.10;99.90
31967;DHT22;18496;52.042;6.812;2022-12-05T01:24:21;5.10;99.90
31967;DHT22;18496;52.042;6.812;2022-12-05T01:26:25;5.10;99.90
31967;DHT22;18496;52.042;6.812;2022-12-05T01:28:28;5.10;99.90
31967;DHT22;18496;52.042;6.812;2022-12-05T01:30:35;5.10;99.90
31967;DHT22;18496;52.042;6.812;2022-12-05T01:32:39;5.10;99.90
31967;DHT22;18496;52.042;6.812;2022-12-05T01:34:43;5.10;99.90
31967;DHT22;18496;52.042;6.812;2022-12-05T01:36:46;5.10;99.90
31967;DHT22;18496;52.042;6.812;2022-12-05T01:38:50;5.10;99.90
31967;DHT22;18496;52.042;6.812;2022-12-05T01:41:02;5.10;99.90
31967;DHT22;18496;52.042;6.812;2022-12-05T01:43:14;5.10;99.90
31967;DHT22;18496;52.042;6.812;2022-12-05T01:45:37;5.10;99.90
31967;DHT22;18496;52.042;6.812;2022-12-05T01:47:41;5.10;99.90
31967;DHT22;18496;52.042;6.812;2022-12-05T01:49:45;5.10;99.90
31967;DHT22;18496;52.042;6.812;2022-12-05T01:51:54;5.10;99.90
31967;DHT22;18496;52.042;6.812;2022-12-05T01:53:59;5.10;99.90
31967;DHT22;18496;52.042;6.812;2022-12-05T01:56:03;5.10;99.90
31967;DHT22;18496;52.042;6.812;2022-12-05T01:58:09;5.10;99.90
31967;DHT22;18496;52.042;6.812;2022-12-05T02:00:15;5.10;99.90
31967;DHT22;18496;52.042;6.812;2022-12-05T02:02:20;5.10;99.90
31967;DHT22;18496;52.042;6.812;2022-12-05T02:04:24;5.10;99.90
31967;DHT22;18496;52.042;6.812;2022-12-05T02:06:27;5.10;99.90
31967;DHT22;18496;52.042;6.812;2022-12-05T02:08:31;5.10;99.90
31967;DHT22;18496;52.042;6.812;2022-12-05T02:10:43;5.10;99.90
31967;DHT22;18496;52.042;6.812;2022-12-05T02:12:48;5.10;99.90
31967;DHT22;18496;52.042;6.812;2022-12-05T02:17:33;5.20;99.90
31967;DHT22;18496;52.042;6.812;2022-12-05T02:22:21;5.20;99.90
31967;DHT22;18496;52.042;6.812;2022-12-05T02:24:51;5.30;99.90
31967;DHT22;18496;52.042;6.812;2022-12-05T02:34:29;5.30;99.90
31967;DHT22;18496;52.042;6.812;2022-12-05T02:38:49;5.30;99.90
31967;DHT22;18496;52.042;6.812;2022-12-05T02:45:37;5.30;99.90
31967;DHT22;18496;52.042;6.812;2022-12-05T02:47:50;5.30;99.90
31967;DHT22;18496;52.042;6.812;2022-12-05T02:49:54;5.30;99.90
31967;DHT22;18496;52.042;6.812;2022-12-05T02:51:59;5.30;99.90
31967;DHT22;18496;52.042;6.812;2022-12-05T02:54:09;5.30;99.90
31967;DHT22;18496;52.042;6.812;2022-12-05T02:56:14;5.30;99.90
31967;DHT22;18496;52.042;6.812;2022-12-05T02:58:22;5.30;99.90
31967;DHT22;18496;52.042;6.812;2022-12-05T03:00:26;5.30;99.90
31967;DHT22;18496;52.042;6.812;2022-12-05T03:02:32;5.30;99.90
31967;DHT22;18496;52.042;6.812;2022-12-05T03:04:36;5.30;99.90
31967;DHT22;18496;52.042;6.812;2022-12-05T03:09:08;5.30;99.90
31967;DHT22;18496;52.042;6.812;2022-12-05T03:11:13;5.30;99.90
31967;DHT22;18496;52.042;6.812;2022-12-05T03:13:30;5.30;99.90
31967;DHT22;18496;52.042;6.812;2022-12-05T03:15:44;5.40;99.90
31967;DHT22;18496;52.042;6.812;2022-12-05T03:17:58;5.40;99.90
31967;DHT22;18496;52.042;6.812;2022-12-05T03:20:18;5.40;99.90
31967;DHT22;18496;52.042;6.812;2022-12-05T03:22:31;5.40;99.90
31967;DHT22;18496;52.042;6.812;2022-12-05T03:24:37;5.40;99.90
31967;DHT22;18496;52.042;6.812;2022-12-05T03:27:19;5.40;99.90
31967;DHT22;18496;52.042;6.812;2022-12-05T03:29:55;5.40;99.90
31967;DHT22;18496;52.042;6.812;2022-12-05T03:32:02;5.40;99.90
31967;DHT22;18496;52.042;6.812;2022-12-05T03:34:15;5.40;99.90
31967;DHT22;18496;52.042;6.812;2022-12-05T03:36:25;5.30;99.90
31967;DHT22;18496;52.042;6.812;2022-12-05T03:38:39;5.40;99.90
31967;DHT22;18496;52.042;6.812;2022-12-05T03:40:51;5.40;99.90
31967;DHT22;18496;52.042;6.812;2022-12-05T03:45:39;5.40;99.90
31967;DHT22;18496;52.042;6.812;2022-12-05T03:48:03;5.40;99.90
31967;DHT22;18496;52.042;6.812;2022-12-05T03:50:18;5.40;99.90
31967;DHT22;18496;52.042;6.812;2022-12-05T03:52:43;5.40;99.90
31967;DHT22;18496;52.042;6.812;2022-12-05T03:54:56;5.40;99.90
31967;DHT22;18496;52.042;6.812;2022-12-05T03:57:08;5.40;99.90
31967;DHT22;18496;52.042;6.812;2022-12-05T03:59:29;5.40;99.90
31967;DHT22;18496;52.042;6.812;2022-12-05T04:01:36;5.40;99.90
31967;DHT22;18496;52.042;6.812;2022-12-05T04:03:45;5.40;99.90
31967;DHT22;18496;52.042;6.812;2022-12-05T04:05:56;5.40;99.90
31967;DHT22;18496;52.042;6.812;2022-12-05T04:08:05;5.40;99.90
31967;DHT22;18496;52.042;6.812;2022-12-05T04:10:15;5.40;99.90
31967;DHT22;18496;52.042;6.812;2022-12-05T04:12:24;5.40;99.90
31967;DHT22;18496;52.042;6.812;2022-12-05T04:14:34;5.40;99.90
31967;DHT22;18496;52.042;6.812;2022-12-05T04:16:48;5.40;99.90
31967;DHT22;18496;52.042;6.812;2022-12-05T04:21:32;5.40;99.90
31967;DHT22;18496;52.042;6.812;2022-12-05T04:23:41;5.50;99.90
31967;DHT22;18496;52.042;6.812;2022-12-05T04:28:12;5.40;99.90
31967;DHT22;18496;52.042;6.812;2022-12-05T04:30:23;5.50;99.90
31967;DHT22;18496;52.042;6.812;2022-12-05T04:32:36;5.50;99.90
31967;DHT22;18496;52.042;6.812;2022-12-05T04:34:41;5.50;99.90
31967;DHT22;18496;52.042;6.812;2022-12-05T04:36:59;5.50;99.90
31967;DHT22;18496;52.042;6.812;2022-12-05T04:39:47;5.50;99.90
31967;DHT22;18496;52.042;6.812;2022-12-05T04:42:00;5.50;99.90
31967;DHT22;18496;52.042;6.812;2022-12-05T04:44:10;5.50;99.90
31967;DHT22;18496;52.042;6.812;2022-12-05T04:46:16;5.50;99.90
31967;DHT22;18496;52.042;6.812;2022-12-05T04:48:21;5.50;99.90
31967;DHT22;18496;52.042;6.812;2022-12-05T04:50:29;5.50;99.90
31967;DHT22;18496;52.042;6.812;2022-12-05T04:52:35;5.60;99.90
31967;DHT22;18496;52.042;6.812;2022-12-05T04:54:44;5.60;99.90
31967;DHT22;18496;52.042;6.812;2022-12-05T04:56:51;5.60;99.90
31967;DHT22;18496;52.042;6.812;2022-12-05T04:58:56;5.60;99.90
31967;DHT22;18496;52.042;6.812;2022-12-05T05:01:18;5.60;99.90
31967;DHT22;18496;52.042;6.812;2022-12-05T05:03:38;5.70;99.90
31967;DHT22;18496;52.042;6.812;2022-12-05T05:05:46;5.70;99.90
31967;DHT22;18496;52.042;6.812;2022-12-05T05:07:53;5.70;99.90
31967;DHT22;18496;52.042;6.812;2022-12-05T05:09:57;5.70;99.90
31967;DHT22;18496;52.042;6.812;2022-12-05T05:12:01;5.70;99.90
31967;DHT22;18496;52.042;6.812;2022-12-05T05:14:04;5.70;99.90
31967;DHT22;18496;52.042;6.812;2022-12-05T05:16:23;5.60;99.90
31967;DHT22;18496;52.042;6.812;2022-12-05T05:18:27;5.60;99.90
31967;DHT22;18496;52.042;6.812;2022-12-05T05:20:30;5.70;99.90
31967;DHT22;18496;52.042;6.812;2022-12-05T05:22:34;5.70;99.90
31967;DHT22;18496;52.042;6.812;2022-12-05T05:24:37;5.70;99.90
31967;DHT22;18496;52.042;6.812;2022-12-05T05:26:42;5.70;99.90
31967;DHT22;18496;52.042;6.812;2022-12-05T05:28:47;5.70;99.90
31967;DHT22;18496;52.042;6.812;2022-12-05T05:30:51;5.70;99.90
31967;DHT22;18496;52.042;6.812;2022-12-05T05:32:54;5.70;99.90
31967;DHT22;18496;52.042;6.812;2022-12-05T05:34:58;5.70;99.90
31967;DHT22;18496;52.042;6.812;2022-12-05T05:37:02;5.70;99.90
31967;DHT22;18496;52.042;6.812;2022-12-05T05:39:05;5.70;99.90
31967;DHT22;18496;52.042;6.812;2022-12-05T05:41:17;5.70;99.90
31967;DHT22;18496;52.042;6.812;2022-12-05T05:43:21;5.70;99.90
31967;DHT22;18496;52.042;6.812;2022-12-05T05:45:25;5.70;99.90
31967;DHT22;18496;52.042;6.812;2022-12-05T05:47:28;5.70;99.90
31967;DHT22;18496;52.042;6.812;2022-12-05T05:49:32;5.70;99.90
31967;DHT22;18496;52.042;6.812;2022-12-05T05:51:35;5.70;99.90
31967;DHT22;18496;52.042;6.812;2022-12-05T05:53:39;5.70;99.90
31967;DHT22;18496;52.042;6.812;2022-12-05T05:55:43;5.70;99.90
31967;DHT22;18496;52.042;6.812;2022-12-05T05:57:46;5.70;99.90
31967;DHT22;18496;52.042;6.812;2022-12-05T05:59:50;5.70;99.90
31967;DHT22;18496;52.042;6.812;2022-12-05T06:01:54;5.80;99.90
31967;DHT22;18496;52.042;6.812;2022-12-05T06:03:57;5.80;99.90
31967;DHT22;18496;52.042;6.812;2022-12-05T06:06:04;5.80;99.90
31967;DHT22;18496;52.042;6.812;2022-12-05T06:08:08;5.80;99.90
31967;DHT22;18496;52.042;6.812;2022-12-05T06:10:11;5.80;99.90
31967;DHT22;18496;52.042;6.812;2022-12-05T06:12:15;5.80;99.90
31967;DHT22;18496;52.042;6.812;2022-12-05T06:14:19;5.80;99.90
31967;DHT22;18496;52.042;6.812;2022-12-05T06:16:23;5.80;99.90
31967;DHT22;18496;52.042;6.812;2022-12-05T06:18:27;5.80;99.90
31967;DHT22;18496;52.042;6.812;2022-12-05T06:20:30;5.80;99.90
31967;DHT22;18496;52.042;6.812;2022-12-05T06:22:34;5.80;99.90
31967;DHT22;18496;52.042;6.812;2022-12-05T06:24:38;5.80;99.90
31967;DHT22;18496;52.042;6.812;2022-12-05T06:26:41;5.80;99.90
31967;DHT22;18496;52.042;6.812;2022-12-05T06:28:46;5.80;99.90
31967;DHT22;18496;52.042;6.812;2022-12-05T06:30:50;5.80;99.90
31967;DHT22;18496;52.042;6.812;2022-12-05T06:32:54;5.80;99.90
31967;DHT22;18496;52.042;6.812;2022-12-05T06:34:57;5.80;99.90
31967;DHT22;18496;52.042;6.812;2022-12-05T06:37:01;5.70;99.90
31967;DHT22;18496;52.042;6.812;2022-12-05T06:39:05;5.80;99.90
31967;DHT22;18496;52.042;6.812;2022-12-05T06:41:11;5.80;99.90
31967;DHT22;18496;52.042;6.812;2022-12-05T06:43:16;5.80;99.90
31967;DHT22;18496;52.042;6.812;2022-12-05T06:45:20;5.80;99.90
31967;DHT22;18496;52.042;6.812;2022-12-05T06:47:23;5.80;99.90
31967;DHT22;18496;52.042;6.812;2022-12-05T06:49:27;5.80;99.90
31967;DHT22;18496;52.042;6.812;2022-12-05T06:51:35;5.80;99.90
31967;DHT22;18496;52.042;6.812;2022-12-05T06:53:39;5.80;99.90
31967;DHT22;18496;52.042;6.812;2022-12-05T06:55:43;5.80;99.90
31967;DHT22;18496;52.042;6.812;2022-12-05T06:57:46;5.80;99.90
31967;DHT22;18496;52.042;6.812;2022-12-05T06:59:50;5.70;99.90
31967;DHT22;18496;52.042;6.812;2022-12-05T07:01:54;5.80;99.90
31967;DHT22;18496;52.042;6.812;2022-12-05T07:03:58;5.80;99.90
31967;DHT22;18496;52.042;6.812;2022-12-05T07:06:03;5.80;99.90
31967;DHT22;18496;52.042;6.812;2022-12-05T07:08:08;5.80;99.90
31967;DHT22;18496;52.042;6.812;2022-12-05T07:10:12;5.80;99.90
31967;DHT22;18496;52.042;6.812;2022-12-05T07:12:17;5.80;99.90
31967;DHT22;18496;52.042;6.812;2022-12-05T07:14:21;5.80;99.90
31967;DHT22;18496;52.042;6.812;2022-12-05T07:16:25;5.80;99.90
31967;DHT22;18496;52.042;6.812;2022-12-05T07:18:28;5.80;99.90
31967;DHT22;18496;52.042;6.812;2022-12-05T07:20:32;5.70;99.90
31967;DHT22;18496;52.042;6.812;2022-12-05T07:22:36;5.70;99.90
31967;DHT22;18496;52.042;6.812;2022-12-05T07:24:39;5.70;99.90
31967;DHT22;18496;52.042;6.812;2022-12-05T07:26:43;5.70;99.90
31967;DHT22;18496;52.042;6.812;2022-12-05T07:28:48;5.70;99.90
31967;DHT22;18496;52.042;6.812;2022-12-05T07:31:03;5.70;99.90
31967;DHT22;18496;52.042;6.812;2022-12-05T07:33:07;5.80;99.90
31967;DHT22;18496;52.042;6.812;2022-12-05T07:35:10;5.70;99.90
31967;DHT22;18496;52.042;6.812;2022-12-05T07:37:14;5.70;99.90
31967;DHT22;18496;52.042;6.812;2022-12-05T07:39:18;5.70;99.90
31967;DHT22;18496;52.042;6.812;2022-12-05T07:41:29;5.70;99.90
31967;DHT22;18496;52.042;6.812;2022-12-05T07:43:33;5.70;99.90
31967;DHT22;18496;52.042;6.812;2022-12-05T07:45:37;5.70;99.90
31967;DHT22;18496;52.042;6.812;2022-12-05T07:47:41;5.70;99.90
31967;DHT22;18496;52.042;6.812;2022-12-05T07:49:44;5.70;99.90
31967;DHT22;18496;52.042;6.812;2022-12-05T07:51:48;5.80;99.90
31967;DHT22;18496;52.042;6.812;2022-12-05T07:53:52;5.80;99.90
31967;DHT22;18496;52.042;6.812;2022-12-05T07:55:58;5.80;99.90
31967;DHT22;18496;52.042;6.812;2022-12-05T07:58:02;5.80;99.90
31967;DHT22;18496;52.042;6.812;2022-12-05T08:00:06;5.80;99.90
31967;DHT22;18496;52.042;6.812;2022-12-05T08:02:16;5.80;99.90
31967;DHT22;18496;52.042;6.812;2022-12-05T08:04:19;5.80;99.90
31967;DHT22;18496;52.042;6.812;2022-12-05T08:06:25;5.80;99.90
31967;DHT22;18496;52.042;6.812;2022-12-05T08:08:29;5.90;99.90
31967;DHT22;18496;52.042;6.812;2022-12-05T08:10:33;5.90;99.90
31967;DHT22;18496;52.042;6.812;2022-12-05T08:12:37;5.80;99.90
31967;DHT22;18496;52.042;6.812;2022-12-05T08:14:41;5.90;99.90
31967;DHT22;18496;52.042;6.812;2022-12-05T08:16:45;5.90;99.90
31967;DHT22;18496;52.042;6.812;2022-12-05T08:18:53;5.90;99.90
31967;DHT22;18496;52.042;6.812;2022-12-05T08:21:05;5.90;99.90
31967;DHT22;18496;52.042;6.812;2022-12-05T08:23:09;5.90;99.90
31967;DHT22;18496;52.042;6.812;2022-12-05T08:25:12;5.90;99.90
31967;DHT22;18496;52.042;6.812;2022-12-05T08:27:16;5.90;99.90
31967;DHT22;18496;52.042;6.812;2022-12-05T08:29:20;5.90;99.90
31967;DHT22;18496;52.042;6.812;2022-12-05T08:31:25;5.90;99.90
31967;DHT22;18496;52.042;6.812;2022-12-05T08:33:29;5.90;99.90
31967;DHT22;18496;52.042;6.812;2022-12-05T08:35:36;6.00;99.90
31967;DHT22;18496;52.042;6.812;2022-12-05T08:37:39;5.90;99.90
31967;DHT22;18496;52.042;6.812;2022-12-05T08:39:43;5.90;99.90
31967;DHT22;18496;52.042;6.812;2022-12-05T08:41:47;5.90;99.90
31967;DHT22;18496;52.042;6.812;2022-12-05T08:43:52;6.00;99.90
31967;DHT22;18496;52.042;6.812;2022-12-05T08:45:55;6.00;99.90
31967;DHT22;18496;52.042;6.812;2022-12-05T08:47:59;6.00;99.90
31967;DHT22;18496;52.042;6.812;2022-12-05T08:50:03;6.00;99.90
31967;DHT22;18496;52.042;6.812;2022-12-05T08:52:06;6.00;99.90
31967;DHT22;18496;52.042;6.812;2022-12-05T08:54:10;6.00;99.90
31967;DHT22;18496;52.042;6.812;2022-12-05T08:56:14;6.00;99.90
31967;DHT22;18496;52.042;6.812;2022-12-05T08:58:18;6.00;99.90
31967;DHT22;18496;52.042;6.812;2022-12-05T09:00:22;6.00;99.90
31967;DHT22;18496;52.042;6.812;2022-12-05T09:02:25;6.00;99.90
31967;DHT22;18496;52.042;6.812;2022-12-05T09:04:29;6.00;99.90
31967;DHT22;18496;52.042;6.812;2022-12-05T09:06:34;6.00;99.90
31967;DHT22;18496;52.042;6.812;2022-12-05T09:08:38;6.10;99.90
31967;DHT22;18496;52.042;6.812;2022-12-05T09:10:42;6.10;99.90
31967;DHT22;18496;52.042;6.812;2022-12-05T09:14:58;6.10;99.90
31967;DHT22;18496;52.042;6.812;2022-12-05T09:17:02;6.10;99.90
31967;DHT22;18496;52.042;6.812;2022-12-05T09:19:14;6.10;99.90
31967;DHT22;18496;52.042;6.812;2022-12-05T09:21:27;6.10;99.90
31967;DHT22;18496;52.042;6.812;2022-12-05T09:23:31;6.10;99.90
31967;DHT22;18496;52.042;6.812;2022-12-05T09:25:34;6.10;99.90
31967;DHT22;18496;52.042;6.812;2022-12-05T09:27:38;6.10;99.90
31967;DHT22;18496;52.042;6.812;2022-12-05T09:29:42;6.20;99.90
31967;DHT22;18496;52.042;6.812;2022-12-05T09:31:47;6.20;99.90
31967;DHT22;18496;52.042;6.812;2022-12-05T09:33:51;6.20;99.90
31967;DHT22;18496;52.042;6.812;2022-12-05T09:35:55;6.20;99.90
31967;DHT22;18496;52.042;6.812;2022-12-05T09:37:59;6.20;99.90
31967;DHT22;18496;52.042;6.812;2022-12-05T09:40:03;6.20;99.90
31967;DHT22;18496;52.042;6.812;2022-12-05T09:44:59;6.20;99.90
31967;DHT22;18496;52.042;6.812;2022-12-05T09:49:26;6.20;99.90
31967;DHT22;18496;52.042;6.812;2022-12-05T09:51:31;6.20;99.90
31967;DHT22;18496;52.042;6.812;2022-12-05T09:53:38;6.20;99.90
31967;DHT22;18496;52.042;6.812;2022-12-05T09:55:55;6.20;99.90
31967;DHT22;18496;52.042;6.812;2022-12-05T09:58:01;6.20;99.90
31967;DHT22;18496;52.042;6.812;2022-12-05T10:00:08;6.20;99.90
31967;DHT22;18496;52.042;6.812;2022-12-05T10:04:56;6.20;99.90
31967;DHT22;18496;52.042;6.812;2022-12-05T10:16:20;6.20;99.90
31967;DHT22;18496;52.042;6.812;2022-12-05T10:18:36;6.20;99.90
31967;DHT22;18496;52.042;6.812;2022-12-05T10:21:10;6.20;99.90
31967;DHT22;18496;52.042;6.812;2022-12-05T10:24:04;6.20;99.90
31967;DHT22;18496;52.042;6.812;2022-12-05T10:25:42;6.20;99.90
31967;DHT22;18496;52.042;6.812;2022-12-05T10:27:53;6.20;99.90
31967;DHT22;18496;52.042;6.812;2022-12-05T10:30:05;6.20;99.90
31967;DHT22;18496;52.042;6.812;2022-12-05T10:32:34;6.20;99.90
31967;DHT22;18496;52.042;6.812;2022-12-05T10:34:43;6.20;99.90
31967;DHT22;18496;52.042;6.812;2022-12-05T10:37:16;6.20;99.90
31967;DHT22;18496;52.042;6.812;2022-12-05T10:39:21;6.30;99.90
31967;DHT22;18496;52.042;6.812;2022-12-05T10:41:25;6.20;99.90
31967;DHT22;18496;52.042;6.812;2022-12-05T10:43:30;6.30;99.90
31967;DHT22;18496;52.042;6.812;2022-12-05T10:45:42;6.30;99.90
31967;DHT22;18496;52.042;6.812;2022-12-05T10:47:46;6.30;99.90
31967;DHT22;18496;52.042;6.812;2022-12-05T10:49:51;6.30;99.90
31967;DHT22;18496;52.042;6.812;2022-12-05T10:51:55;6.30;99.90
31967;DHT22;18496;52.042;6.812;2022-12-05T10:53:59;6.20;99.90
31967;DHT22;18496;52.042;6.812;2022-12-05T10:58:28;6.30;99.90
31967;DHT22;18496;52.042;6.812;2022-12-05T11:00:32;6.30;99.90
31967;DHT22;18496;52.042;6.812;2022-12-05T11:02:36;6.30;99.90
31967;DHT22;18496;52.042;6.812;2022-12-05T11:04:43;6.30;99.90
31967;DHT22;18496;52.042;6.812;2022-12-05T11:07:01;6.30;99.90
31967;DHT22;18496;52.042;6.812;2022-12-05T11:09:17;6.30;99.90
31967;DHT22;18496;52.042;6.812;2022-12-05T11:11:25;6.30;99.90
31967;DHT22;18496;52.042;6.812;2022-12-05T11:13:32;6.30;99.90
31967;DHT22;18496;52.042;6.812;2022-12-05T11:15:43;6.30;99.90
31967;DHT22;18496;52.042;6.812;2022-12-05T11:17:48;6.30;99.90
31967;DHT22;18496;52.042;6.812;2022-12-05T11:19:52;6.30;99.90
31967;DHT22;18496;52.042;6.812;2022-12-05T11:21:55;6.30;99.90
31967;DHT22;18496;52.042;6.812;2022-12-05T11:24:20;6.30;99.90
31967;DHT22;18496;52.042;6.812;2022-12-05T11:26:36;6.30;99.90
31967;DHT22;18496;52.042;6.812;2022-12-05T11:28:40;6.30;99.90
31967;DHT22;18496;52.042;6.812;2022-12-05T11:30:57;6.30;99.90
31967;DHT22;18496;52.042;6.812;2022-12-05T11:33:18;6.30;99.90
31967;DHT22;18496;52.042;6.812;2022-12-05T11:35:25;6.30;99.90
31967;DHT22;18496;52.042;6.812;2022-12-05T11:37:36;6.20;99.90
31967;DHT22;18496;52.042;6.812;2022-12-05T11:39:41;6.20;99.90
31967;DHT22;18496;52.042;6.812;2022-12-05T11:42:11;6.20;99.90
31967;DHT22;18496;52.042;6.812;2022-12-05T11:44:23;6.20;99.90
31967;DHT22;18496;52.042;6.812;2022-12-05T11:46:38;6.20;99.90
31967;DHT22;18496;52.042;6.812;2022-12-05T11:51:37;6.20;99.90
31967;DHT22;18496;52.042;6.812;2022-12-05T11:56:17;6.20;99.90
31967;DHT22;18496;52.042;6.812;2022-12-05T11:58:59;6.20;99.90
31967;DHT22;18496;52.042;6.812;2022-12-05T12:03:40;6.20;99.90
31967;DHT22;18496;52.042;6.812;2022-12-05T12:14:57;6.10;99.90
31967;DHT22;18496;52.042;6.812;2022-12-05T12:21:59;6.10;99.90
31967;DHT22;18496;52.042;6.812;2022-12-05T12:24:30;6.00;99.90
31967;DHT22;18496;52.042;6.812;2022-12-05T12:27:04;6.00;99.90
31967;DHT22;18496;52.042;6.812;2022-12-05T12:34:43;5.90;99.90
31967;DHT22;18496;52.042;6.812;2022-12-05T12:36:50;5.90;99.90
31967;DHT22;18496;52.042;6.812;2022-12-05T12:50:45;5.80;99.90
31967;DHT22;18496;52.042;6.812;2022-12-05T12:55:29;5.80;99.90
31967;DHT22;18496;52.042;6.812;2022-12-05T12:58:33;5.80;99.90
31967;DHT22;18496;52.042;6.812;2022-12-05T13:00:40;5.80;99.90
31967;DHT22;18496;52.042;6.812;2022-12-05T13:02:51;5.80;99.90
31967;DHT22;18496;52.042;6.812;2022-12-05T13:05:22;5.80;99.90
31967;DHT22;18496;52.042;6.812;2022-12-05T13:07:40;5.90;99.90
31967;DHT22;18496;52.042;6.812;2022-12-05T13:09:56;5.90;99.90
31967;DHT22;18496;52.042;6.812;2022-12-05T13:12:09;5.90;99.90
31967;DHT22;18496;52.042;6.812;2022-12-05T13:14:17;5.80;99.90
31967;DHT22;18496;52.042;6.812;2022-12-05T13:16:27;5.80;99.90
31967;DHT22;18496;52.042;6.812;2022-12-05T13:18:33;5.90;99.90
31967;DHT22;18496;52.042;6.812;2022-12-05T13:20:38;5.90;99.90
31967;DHT22;18496;52.042;6.812;2022-12-05T13:22:43;5.90;99.90
31967;DHT22;18496;52.042;6.812;2022-12-05T13:24:50;6.00;99.90
31967;DHT22;18496;52.042;6.812;2022-12-05T13:26:58;6.00;99.90
31967;DHT22;18496;52.042;6.812;2022-12-05T13:29:03;6.00;99.90
31967;DHT22;18496;52.042;6.812;2022-12-05T13:31:08;5.90;99.90
31967;DHT22;18496;52.042;6.812;2022-12-05T13:33:16;5.90;99.90
31967;DHT22;18496;52.042;6.812;2022-12-05T13:35:29;6.00;99.90
31967;DHT22;18496;52.042;6.812;2022-12-05T13:37:52;5.90;99.90
31967;DHT22;18496;52.042;6.812;2022-12-05T13:42:59;5.90;99.90
31967;DHT22;18496;52.042;6.812;2022-12-05T13:49:51;5.90;99.90
31967;DHT22;18496;52.042;6.812;2022-12-05T13:52:04;5.90;99.90
31967;DHT22;18496;52.042;6.812;2022-12-05T13:54:25;5.90;99.90
31967;DHT22;18496;52.042;6.812;2022-12-05T13:56:51;5.90;99.90
31967;DHT22;18496;52.042;6.812;2022-12-05T13:58:56;5.90;99.90
31967;DHT22;18496;52.042;6.812;2022-12-05T14:05:45;5.90;99.90
31967;DHT22;18496;52.042;6.812;2022-12-05T14:07:51;5.90;99.90
31967;DHT22;18496;52.042;6.812;2022-12-05T14:09:55;5.90;99.90
31967;DHT22;18496;52.042;6.812;2022-12-05T14:17:01;6.00;99.90
31967;DHT22;18496;52.042;6.812;2022-12-05T14:19:13;6.00;99.90
31967;DHT22;18496;52.042;6.812;2022-12-05T14:21:22;6.00;99.90
31967;DHT22;18496;52.042;6.812;2022-12-05T14:33:21;6.00;99.90
31967;DHT22;18496;52.042;6.812;2022-12-05T14:35:31;6.10;99.90
31967;DHT22;18496;52.042;6.812;2022-12-05T14:39:58;6.10;99.90
31967;DHT22;18496;52.042;6.812;2022-12-05T14:42:14;6.10;99.90
31967;DHT22;18496;52.042;6.812;2022-12-05T14:44:22;6.10;99.90
31967;DHT22;18496;52.042;6.812;2022-12-05T14:46:29;6.10;99.90
31967;DHT22;18496;52.042;6.812;2022-12-05T14:48:45;6.10;99.90
31967;DHT22;18496;52.042;6.812;2022-12-05T14:50:52;6.10;99.90
31967;DHT22;18496;52.042;6.812;2022-12-05T14:55:18;6.10;99.90
31967;DHT22;18496;52.042;6.812;2022-12-05T14:57:22;6.10;99.90
31967;DHT22;18496;52.042;6.812;2022-12-05T14:59:58;6.10;99.90
31967;DHT22;18496;52.042;6.812;2022-12-05T15:02:01;6.10;99.90
31967;DHT22;18496;52.042;6.812;2022-12-05T15:04:40;6.10;99.90
31967;DHT22;18496;52.042;6.812;2022-12-05T15:06:54;6.10;99.90
31967;DHT22;18496;52.042;6.812;2022-12-05T15:09:04;6.10;99.90
31967;DHT22;18496;52.042;6.812;2022-12-05T15:11:18;6.10;99.90
31967;DHT22;18496;52.042;6.812;2022-12-05T15:13:31;6.10;99.90
31967;DHT22;18496;52.042;6.812;2022-12-05T15:17:51;6.10;99.90
31967;DHT22;18496;52.042;6.812;2022-12-05T15:20:15;6.10;99.90
31967;DHT22;18496;52.042;6.812;2022-12-05T15:22:21;6.10;99.90
31967;DHT22;18496;52.042;6.812;2022-12-05T15:24:36;6.10;99.90
31967;DHT22;18496;52.042;6.812;2022-12-05T15:26:52;6.20;99.90
31967;DHT22;18496;52.042;6.812;2022-12-05T15:29:07;6.20;99.90
31967;DHT22;18496;52.042;6.812;2022-12-05T15:31:11;6.20;99.90
31967;DHT22;18496;52.042;6.812;2022-12-05T15:33:15;6.20;99.90
31967;DHT22;18496;52.042;6.812;2022-12-05T15:35:22;6.20;99.90
31967;DHT22;18496;52.042;6.812;2022-12-05T15:42:10;6.20;99.90
31967;DHT22;18496;52.042;6.812;2022-12-05T15:44:19;6.20;99.90
31967;DHT22;18496;52.042;6.812;2022-12-05T15:46:26;6.20;99.90
31967;DHT22;18496;52.042;6.812;2022-12-05T15:48:30;6.20;99.90
31967;DHT22;18496;52.042;6.812;2022-12-05T15:50:48;6.20;99.90
31967;DHT22;18496;52.042;6.812;2022-12-05T15:55:03;6.20;99.90
31967;DHT22;18496;52.042;6.812;2022-12-05T15:57:16;6.20;99.90